sensor_id;sensor_type;location;lat;lon;timestamp;temperature;humidity
4701;DHT22;8724;51.272;6.554;2024-02-26T00:01:54;10.50;99.90
4701;DHT22;8724;51.272;6.554;2024-02-26T00:04:23;10.50;99.90
4701;DHT22;8724;51.272;6.554;2024-02-26T00:06:51;10.50;99.90
4701;DHT22;8724;51.272;6.554;2024-02-26T00:09:21;10.50;99.90
4701;DHT22;8724;51.272;6.554;2024-02-26T00:11:49;10.50;99.90
4701;DHT22;8724;51.272;6.554;2024-02-26T00:14:19;10.50;99.90
4701;DHT22;8724;51.272;6.554;2024-02-26T00:16:47;10.50;99.90
4701;DHT22;8724;51.272;6.554;2024-02-26T00:19:15;10.50;99.90
4701;DHT22;8724;51.272;6.554;2024-02-26T00:21:43;10.50;99.90
4701;DHT22;8724;51.272;6.554;2024-02-26T00:24:11;10.50;99.90
4701;DHT22;8724;51.272;6.554;2024-02-26T00:26:40;10.50;99.90
4701;DHT22;8724;51.272;6.554;2024-02-26T00:29:08;10.50;99.90
4701;DHT22;8724;51.272;6.554;2024-02-26T00:31:38;10.50;99.90
4701;DHT22;8724;51.272;6.554;2024-02-26T00:34:06;10.50;99.90
4701;DHT22;8724;51.272;6.554;2024-02-26T00:36:34;10.50;99.90
4701;DHT22;8724;51.272;6.554;2024-02-26T00:39:03;10.50;99.90
4701;DHT22;8724;51.272;6.554;2024-02-26T00:41:31;10.50;99.90
4701;DHT22;8724;51.272;6.554;2024-02-26T00:43:59;10.50;99.90
4701;DHT22;8724;51.272;6.554;2024-02-26T00:46:27;10.50;99.90
4701;DHT22;8724;51.272;6.554;2024-02-26T00:48:56;10.50;99.90
4701;DHT22;8724;51.272;6.554;2024-02-26T00:51:25;10.50;99.90
4701;DHT22;8724;51.272;6.554;2024-02-26T00:56:21;10.40;99.90
4701;DHT22;8724;51.272;6.554;2024-02-26T00:58:49;10.50;99.90
4701;DHT22;8724;51.272;6.554;2024-02-26T01:01:18;10.50;99.90
4701;DHT22;8724;51.272;6.554;2024-02-26T01:03:46;10.50;99.90
4701;DHT22;8724;51.272;6.554;2024-02-26T01:06:16;10.50;99.90
4701;DHT22;8724;51.272;6.554;2024-02-26T01:08:45;10.40;99.90
4701;DHT22;8724;51.272;6.554;2024-02-26T01:11:13;10.50;99.90
4701;DHT22;8724;51.272;6.554;2024-02-26T01:13:41;10.50;99.90
4701;DHT22;8724;51.272;6.554;2024-02-26T01:16:10;10.50;99.90
4701;DHT22;8724;51.272;6.554;2024-02-26T01:18:38;10.50;99.90
4701;DHT22;8724;51.272;6.554;2024-02-26T01:21:06;10.40;99.90
4701;DHT22;8724;51.272;6.554;2024-02-26T01:23:37;10.40;99.90
4701;DHT22;8724;51.272;6.554;2024-02-26T01:26:05;10.40;99.90
4701;DHT22;8724;51.272;6.554;2024-02-26T01:28:33;10.40;99.90
4701;DHT22;8724;51.272;6.554;2024-02-26T01:31:02;10.40;99.90
4701;DHT22;8724;51.272;6.554;2024-02-26T01:33:32;10.40;99.90
4701;DHT22;8724;51.272;6.554;2024-02-26T01:36:00;10.40;99.90
4701;DHT22;8724;51.272;6.554;2024-02-26T01:38:29;10.40;99.90
4701;DHT22;8724;51.272;6.554;2024-02-26T01:40:59;10.40;99.90
4701;DHT22;8724;51.272;6.554;2024-02-26T01:43:27;10.40;99.90
4701;DHT22;8724;51.272;6.554;2024-02-26T01:45:55;10.40;99.90
4701;DHT22;8724;51.272;6.554;2024-02-26T01:48:24;10.40;99.90
4701;DHT22;8724;51.272;6.554;2024-02-26T01:50:52;10.40;99.90
4701;DHT22;8724;51.272;6.554;2024-02-26T01:53:21;10.40;99.90
4701;DHT22;8724;51.272;6.554;2024-02-26T01:55:50;10.40;99.90
4701;DHT22;8724;51.272;6.554;2024-02-26T01:58:20;10.40;99.90
4701;DHT22;8724;51.272;6.554;2024-02-26T02:00:48;10.40;99.90
4701;DHT22;8724;51.272;6.554;2024-02-26T02:03:17;10.40;99.90
4701;DHT22;8724;51.272;6.554;2024-02-26T02:05:45;10.40;99.90
4701;DHT22;8724;51.272;6.554;2024-02-26T02:08:14;10.40;99.90
4701;DHT22;8724;51.272;6.554;2024-02-26T02:10:42;10.40;99.90
4701;DHT22;8724;51.272;6.554;2024-02-26T02:13:11;10.40;99.90
4701;DHT22;8724;51.272;6.554;2024-02-26T02:15:41;10.50;99.90
4701;DHT22;8724;51.272;6.554;2024-02-26T02:18:09;10.40;99.90
4701;DHT22;8724;51.272;6.554;2024-02-26T02:20:39;10.40;99.90
4701;DHT22;8724;51.272;6.554;2024-02-26T02:23:07;10.40;99.90
4701;DHT22;8724;51.272;6.554;2024-02-26T02:25:35;10.40;99.90
4701;DHT22;8724;51.272;6.554;2024-02-26T02:28:04;10.40;99.90
4701;DHT22;8724;51.272;6.554;2024-02-26T02:30:33;10.40;99.90
4701;DHT22;8724;51.272;6.554;2024-02-26T02:33:03;10.30;99.90
4701;DHT22;8724;51.272;6.554;2024-02-26T02:35:31;10.30;99.90
4701;DHT22;8724;51.272;6.554;2024-02-26T02:38:01;10.40;99.90
4701;DHT22;8724;51.272;6.554;2024-02-26T02:40:29;10.30;99.90
4701;DHT22;8724;51.272;6.554;2024-02-26T02:42:57;10.30;99.90
4701;DHT22;8724;51.272;6.554;2024-02-26T02:45:26;10.30;99.90
4701;DHT22;8724;51.272;6.554;2024-02-26T02:47:55;10.40;99.90
4701;DHT22;8724;51.272;6.554;2024-02-26T02:50:23;10.30;99.90
4701;DHT22;8724;51.272;6.554;2024-02-26T02:52:51;10.30;99.90
4701;DHT22;8724;51.272;6.554;2024-02-26T02:55:21;10.30;99.90
4701;DHT22;8724;51.272;6.554;2024-02-26T02:57:49;10.20;99.90
4701;DHT22;8724;51.272;6.554;2024-02-26T03:00:17;10.20;99.90
4701;DHT22;8724;51.272;6.554;2024-02-26T03:02:46;10.20;99.90
4701;DHT22;8724;51.272;6.554;2024-02-26T03:05:15;10.10;99.90
4701;DHT22;8724;51.272;6.554;2024-02-26T03:07:43;10.10;99.90
4701;DHT22;8724;51.272;6.554;2024-02-26T03:10:11;10.20;99.90
4701;DHT22;8724;51.272;6.554;2024-02-26T03:12:42;10.10;99.90
4701;DHT22;8724;51.272;6.554;2024-02-26T03:15:10;10.10;99.90
4701;DHT22;8724;51.272;6.554;2024-02-26T03:17:38;10.10;99.90
4701;DHT22;8724;51.272;6.554;2024-02-26T03:20:08;10.10;99.90
4701;DHT22;8724;51.272;6.554;2024-02-26T03:22:38;10.10;99.90
4701;DHT22;8724;51.272;6.554;2024-02-26T03:25:07;10.10;99.90
4701;DHT22;8724;51.272;6.554;2024-02-26T03:27:36;10.10;99.90
4701;DHT22;8724;51.272;6.554;2024-02-26T03:30:06;10.10;99.90
4701;DHT22;8724;51.272;6.554;2024-02-26T03:32:35;10.00;99.90
4701;DHT22;8724;51.272;6.554;2024-02-26T03:35:04;10.00;99.90
4701;DHT22;8724;51.272;6.554;2024-02-26T03:37:34;10.00;99.90
4701;DHT22;8724;51.272;6.554;2024-02-26T03:40:03;10.00;99.90
4701;DHT22;8724;51.272;6.554;2024-02-26T03:42:31;10.00;99.90
4701;DHT22;8724;51.272;6.554;2024-02-26T03:45:00;10.00;99.90
4701;DHT22;8724;51.272;6.554;2024-02-26T03:47:29;10.00;99.90
4701;DHT22;8724;51.272;6.554;2024-02-26T03:49:58;10.00;99.90
4701;DHT22;8724;51.272;6.554;2024-02-26T03:52:27;10.00;99.90
4701;DHT22;8724;51.272;6.554;2024-02-26T03:54:55;10.00;99.90
4701;DHT22;8724;51.272;6.554;2024-02-26T03:57:23;10.00;99.90
4701;DHT22;8724;51.272;6.554;2024-02-26T03:59:51;9.90;99.90
4701;DHT22;8724;51.272;6.554;2024-02-26T04:02:19;9.90;99.90
4701;DHT22;8724;51.272;6.554;2024-02-26T04:04:51;9.90;99.90
4701;DHT22;8724;51.272;6.554;2024-02-26T04:07:19;9.90;99.90
4701;DHT22;8724;51.272;6.554;2024-02-26T04:09:48;9.80;99.90
4701;DHT22;8724;51.272;6.554;2024-02-26T04:12:16;9.80;99.90
4701;DHT22;8724;51.272;6.554;2024-02-26T04:14:45;9.80;99.90
4701;DHT22;8724;51.272;6.554;2024-02-26T04:17:13;9.80;99.90
4701;DHT22;8724;51.272;6.554;2024-02-26T04:19:42;9.90;99.90
4701;DHT22;8724;51.272;6.554;2024-02-26T04:22:11;9.90;99.90
4701;DHT22;8724;51.272;6.554;2024-02-26T04:24:40;9.80;99.90
4701;DHT22;8724;51.272;6.554;2024-02-26T04:27:08;9.80;99.90
4701;DHT22;8724;51.272;6.554;2024-02-26T04:29:36;9.90;99.90
4701;DHT22;8724;51.272;6.554;2024-02-26T04:32:04;9.90;99.90
4701;DHT22;8724;51.272;6.554;2024-02-26T04:34:33;9.90;99.90
4701;DHT22;8724;51.272;6.554;2024-02-26T04:37:01;9.80;99.90
4701;DHT22;8724;51.272;6.554;2024-02-26T04:39:31;9.90;99.90
4701;DHT22;8724;51.272;6.554;2024-02-26T04:41:59;9.80;99.90
4701;DHT22;8724;51.272;6.554;2024-02-26T04:44:30;9.80;99.90
4701;DHT22;8724;51.272;6.554;2024-02-26T04:46:58;9.80;99.90
4701;DHT22;8724;51.272;6.554;2024-02-26T04:49:28;9.80;99.90
4701;DHT22;8724;51.272;6.554;2024-02-26T04:51:57;9.80;99.90
4701;DHT22;8724;51.272;6.554;2024-02-26T04:54:25;9.80;99.90
4701;DHT22;8724;51.272;6.554;2024-02-26T04:56:54;9.80;99.90
4701;DHT22;8724;51.272;6.554;2024-02-26T04:59:22;9.80;99.90
4701;DHT22;8724;51.272;6.554;2024-02-26T05:01:51;9.80;99.90
4701;DHT22;8724;51.272;6.554;2024-02-26T05:04:19;9.80;99.90
4701;DHT22;8724;51.272;6.554;2024-02-26T05:06:48;9.70;99.90
4701;DHT22;8724;51.272;6.554;2024-02-26T05:09:16;9.70;99.90
4701;DHT22;8724;51.272;6.554;2024-02-26T05:11:45;9.80;99.90
4701;DHT22;8724;51.272;6.554;2024-02-26T05:14:14;9.70;99.90
4701;DHT22;8724;51.272;6.554;2024-02-26T05:16:42;9.70;99.90
4701;DHT22;8724;51.272;6.554;2024-02-26T05:19:10;9.70;99.90
4701;DHT22;8724;51.272;6.554;2024-02-26T05:21:39;9.70;99.90
4701;DHT22;8724;51.272;6.554;2024-02-26T05:24:07;9.70;99.90
4701;DHT22;8724;51.272;6.554;2024-02-26T05:26:36;9.70;99.90
4701;DHT22;8724;51.272;6.554;2024-02-26T05:29:04;9.70;99.90
4701;DHT22;8724;51.272;6.554;2024-02-26T05:31:33;9.70;99.90
4701;DHT22;8724;51.272;6.554;2024-02-26T05:34:01;9.70;99.90
4701;DHT22;8724;51.272;6.554;2024-02-26T05:36:30;9.70;99.90
4701;DHT22;8724;51.272;6.554;2024-02-26T05:39:00;9.80;99.90
4701;DHT22;8724;51.272;6.554;2024-02-26T05:41:28;9.70;99.90
4701;DHT22;8724;51.272;6.554;2024-02-26T05:43:57;9.70;99.90
4701;DHT22;8724;51.272;6.554;2024-02-26T05:46:25;9.70;99.90
4701;DHT22;8724;51.272;6.554;2024-02-26T05:48:55;9.70;99.90
4701;DHT22;8724;51.272;6.554;2024-02-26T05:51:23;9.70;99.90
4701;DHT22;8724;51.272;6.554;2024-02-26T05:53:52;9.70;99.90
4701;DHT22;8724;51.272;6.554;2024-02-26T05:56:22;9.70;99.90
4701;DHT22;8724;51.272;6.554;2024-02-26T05:58:50;9.70;99.90
4701;DHT22;8724;51.272;6.554;2024-02-26T06:01:20;9.70;99.90
4701;DHT22;8724;51.272;6.554;2024-02-26T06:03:49;9.70;99.90
4701;DHT22;8724;51.272;6.554;2024-02-26T06:06:19;9.70;99.90
4701;DHT22;8724;51.272;6.554;2024-02-26T06:08:49;9.60;99.90
4701;DHT22;8724;51.272;6.554;2024-02-26T06:11:17;9.60;99.90
4701;DHT22;8724;51.272;6.554;2024-02-26T06:13:46;9.60;99.90
4701;DHT22;8724;51.272;6.554;2024-02-26T06:16:14;9.60;99.90
4701;DHT22;8724;51.272;6.554;2024-02-26T06:18:42;9.60;99.90
4701;DHT22;8724;51.272;6.554;2024-02-26T06:21:11;9.60;99.90
4701;DHT22;8724;51.272;6.554;2024-02-26T06:23:41;9.60;99.90
4701;DHT22;8724;51.272;6.554;2024-02-26T06:26:09;9.60;99.90
4701;DHT22;8724;51.272;6.554;2024-02-26T06:28:37;9.60;99.90
4701;DHT22;8724;51.272;6.554;2024-02-26T06:31:07;9.60;99.90
4701;DHT22;8724;51.272;6.554;2024-02-26T06:33:36;9.60;99.90
4701;DHT22;8724;51.272;6.554;2024-02-26T06:36:04;9.60;99.90
4701;DHT22;8724;51.272;6.554;2024-02-26T06:38:33;9.60;99.90
4701;DHT22;8724;51.272;6.554;2024-02-26T06:41:03;9.60;99.90
4701;DHT22;8724;51.272;6.554;2024-02-26T06:43:31;9.60;99.90
4701;DHT22;8724;51.272;6.554;2024-02-26T06:45:59;9.60;99.90
4701;DHT22;8724;51.272;6.554;2024-02-26T06:48:27;9.60;99.90
4701;DHT22;8724;51.272;6.554;2024-02-26T06:50:55;9.60;99.90
4701;DHT22;8724;51.272;6.554;2024-02-26T06:53:24;9.60;99.90
4701;DHT22;8724;51.272;6.554;2024-02-26T06:55:52;9.60;99.90
4701;DHT22;8724;51.272;6.554;2024-02-26T06:58:22;9.50;99.90
4701;DHT22;8724;51.272;6.554;2024-02-26T07:00:50;9.70;99.90
4701;DHT22;8724;51.272;6.554;2024-02-26T07:03:18;9.60;99.90
4701;DHT22;8724;51.272;6.554;2024-02-26T07:05:46;9.60;99.90
4701;DHT22;8724;51.272;6.554;2024-02-26T07:08:15;9.50;99.90
4701;DHT22;8724;51.272;6.554;2024-02-26T07:10:43;9.60;99.90
4701;DHT22;8724;51.272;6.554;2024-02-26T07:13:12;9.60;99.90
4701;DHT22;8724;51.272;6.554;2024-02-26T07:15:42;9.60;99.90
4701;DHT22;8724;51.272;6.554;2024-02-26T07:18:10;9.60;99.90
4701;DHT22;8724;51.272;6.554;2024-02-26T07:20:38;9.80;99.90
4701;DHT22;8724;51.272;6.554;2024-02-26T07:23:06;9.60;99.90
4701;DHT22;8724;51.272;6.554;2024-02-26T07:25:34;9.60;99.90
4701;DHT22;8724;51.272;6.554;2024-02-26T07:28:03;9.60;99.90
4701;DHT22;8724;51.272;6.554;2024-02-26T07:30:32;9.60;99.90
4701;DHT22;8724;51.272;6.554;2024-02-26T07:33:01;9.60;99.90
4701;DHT22;8724;51.272;6.554;2024-02-26T07:35:29;9.60;99.90
4701;DHT22;8724;51.272;6.554;2024-02-26T07:37:59;9.70;99.90
4701;DHT22;8724;51.272;6.554;2024-02-26T07:40:27;9.70;99.90
4701;DHT22;8724;51.272;6.554;2024-02-26T07:42:56;10.00;99.90
4701;DHT22;8724;51.272;6.554;2024-02-26T07:45:24;9.60;99.90
4701;DHT22;8724;51.272;6.554;2024-02-26T07:47:52;9.70;99.90
4701;DHT22;8724;51.272;6.554;2024-02-26T07:50:22;9.70;99.90
4701;DHT22;8724;51.272;6.554;2024-02-26T07:52:50;9.60;99.90
4701;DHT22;8724;51.272;6.554;2024-02-26T07:55:19;9.70;99.90
4701;DHT22;8724;51.272;6.554;2024-02-26T07:57:49;9.60;99.90
4701;DHT22;8724;51.272;6.554;2024-02-26T08:00:18;9.70;99.90
4701;DHT22;8724;51.272;6.554;2024-02-26T08:02:46;9.60;99.90
4701;DHT22;8724;51.272;6.554;2024-02-26T08:05:14;9.60;99.90
4701;DHT22;8724;51.272;6.554;2024-02-26T08:07:44;9.70;99.90
4701;DHT22;8724;51.272;6.554;2024-02-26T08:10:13;9.60;99.90
4701;DHT22;8724;51.272;6.554;2024-02-26T08:12:41;9.70;99.90
4701;DHT22;8724;51.272;6.554;2024-02-26T08:15:09;9.70;99.90
4701;DHT22;8724;51.272;6.554;2024-02-26T08:17:38;9.70;99.90
4701;DHT22;8724;51.272;6.554;2024-02-26T08:20:07;9.70;99.90
4701;DHT22;8724;51.272;6.554;2024-02-26T08:22:36;9.70;99.90
4701;DHT22;8724;51.272;6.554;2024-02-26T08:25:08;9.70;99.90
4701;DHT22;8724;51.272;6.554;2024-02-26T08:27:37;9.70;99.90
4701;DHT22;8724;51.272;6.554;2024-02-26T08:30:06;9.70;99.90
4701;DHT22;8724;51.272;6.554;2024-02-26T08:32:35;9.70;99.90
4701;DHT22;8724;51.272;6.554;2024-02-26T08:35:04;9.70;99.90
4701;DHT22;8724;51.272;6.554;2024-02-26T08:37:33;9.70;99.90
4701;DHT22;8724;51.272;6.554;2024-02-26T08:40:01;9.70;99.90
4701;DHT22;8724;51.272;6.554;2024-02-26T08:42:34;9.70;99.90
4701;DHT22;8724;51.272;6.554;2024-02-26T08:45:03;9.70;99.90
4701;DHT22;8724;51.272;6.554;2024-02-26T08:47:32;9.70;99.90
4701;DHT22;8724;51.272;6.554;2024-02-26T08:50:00;9.70;99.90
4701;DHT22;8724;51.272;6.554;2024-02-26T08:52:29;9.70;99.90
4701;DHT22;8724;51.272;6.554;2024-02-26T08:54:57;9.70;99.90
4701;DHT22;8724;51.272;6.554;2024-02-26T08:57:25;9.70;99.90
4701;DHT22;8724;51.272;6.554;2024-02-26T08:59:55;9.70;99.90
4701;DHT22;8724;51.272;6.554;2024-02-26T09:02:24;9.70;99.90
4701;DHT22;8724;51.272;6.554;2024-02-26T09:04:52;9.70;99.90
4701;DHT22;8724;51.272;6.554;2024-02-26T09:07:22;9.70;99.90
4701;DHT22;8724;51.272;6.554;2024-02-26T09:09:50;9.70;99.90
4701;DHT22;8724;51.272;6.554;2024-02-26T09:12:18;9.70;99.90
4701;DHT22;8724;51.272;6.554;2024-02-26T09:14:48;9.60;99.90
4701;DHT22;8724;51.272;6.554;2024-02-26T09:17:17;9.60;99.90
4701;DHT22;8724;51.272;6.554;2024-02-26T09:19:45;9.60;99.90
4701;DHT22;8724;51.272;6.554;2024-02-26T09:22:14;9.70;99.90
4701;DHT22;8724;51.272;6.554;2024-02-26T09:24:45;9.60;99.90
4701;DHT22;8724;51.272;6.554;2024-02-26T09:27:13;9.80;99.90
4701;DHT22;8724;51.272;6.554;2024-02-26T09:29:41;9.60;99.90
4701;DHT22;8724;51.272;6.554;2024-02-26T09:32:10;9.80;99.90
4701;DHT22;8724;51.272;6.554;2024-02-26T09:34:41;9.60;99.90
4701;DHT22;8724;51.272;6.554;2024-02-26T09:37:09;9.60;99.90
4701;DHT22;8724;51.272;6.554;2024-02-26T09:39:47;9.70;99.90
4701;DHT22;8724;51.272;6.554;2024-02-26T09:42:18;9.70;99.90
4701;DHT22;8724;51.272;6.554;2024-02-26T09:44:48;9.70;99.90
4701;DHT22;8724;51.272;6.554;2024-02-26T09:47:19;9.70;99.90
4701;DHT22;8724;51.272;6.554;2024-02-26T09:49:50;9.70;99.90
4701;DHT22;8724;51.272;6.554;2024-02-26T09:52:20;9.70;99.90
4701;DHT22;8724;51.272;6.554;2024-02-26T09:54:49;9.70;99.90
4701;DHT22;8724;51.272;6.554;2024-02-26T09:57:18;9.70;99.90
4701;DHT22;8724;51.272;6.554;2024-02-26T09:59:48;9.70;99.90
4701;DHT22;8724;51.272;6.554;2024-02-26T10:02:18;9.70;99.90
4701;DHT22;8724;51.272;6.554;2024-02-26T10:04:49;9.70;99.90
4701;DHT22;8724;51.272;6.554;2024-02-26T10:07:20;9.60;99.90
4701;DHT22;8724;51.272;6.554;2024-02-26T10:09:48;9.70;99.90
4701;DHT22;8724;51.272;6.554;2024-02-26T10:12:18;9.70;99.90
4701;DHT22;8724;51.272;6.554;2024-02-26T10:14:46;9.60;99.90
4701;DHT22;8724;51.272;6.554;2024-02-26T10:17:15;9.70;99.90
4701;DHT22;8724;51.272;6.554;2024-02-26T10:19:43;9.70;99.90
4701;DHT22;8724;51.272;6.554;2024-02-26T10:22:13;9.70;99.90
4701;DHT22;8724;51.272;6.554;2024-02-26T10:24:41;9.70;99.90
4701;DHT22;8724;51.272;6.554;2024-02-26T10:27:10;9.70;99.90
4701;DHT22;8724;51.272;6.554;2024-02-26T10:29:38;9.70;99.90
4701;DHT22;8724;51.272;6.554;2024-02-26T10:32:07;9.60;99.90
4701;DHT22;8724;51.272;6.554;2024-02-26T10:34:36;9.70;99.90
4701;DHT22;8724;51.272;6.554;2024-02-26T10:37:05;9.70;99.90
4701;DHT22;8724;51.272;6.554;2024-02-26T10:39:36;9.70;99.90
4701;DHT22;8724;51.272;6.554;2024-02-26T10:42:05;9.70;99.90
4701;DHT22;8724;51.272;6.554;2024-02-26T10:44:40;9.70;99.90
4701;DHT22;8724;51.272;6.554;2024-02-26T10:47:10;9.70;99.90
4701;DHT22;8724;51.272;6.554;2024-02-26T10:49:38;9.60;99.90
4701;DHT22;8724;51.272;6.554;2024-02-26T10:52:07;9.70;99.90
4701;DHT22;8724;51.272;6.554;2024-02-26T10:54:39;9.60;99.90
4701;DHT22;8724;51.272;6.554;2024-02-26T10:57:11;9.60;99.90
4701;DHT22;8724;51.272;6.554;2024-02-26T10:59:42;9.60;99.90
4701;DHT22;8724;51.272;6.554;2024-02-26T11:02:12;9.60;99.90
4701;DHT22;8724;51.272;6.554;2024-02-26T11:04:41;9.60;99.90
4701;DHT22;8724;51.272;6.554;2024-02-26T11:07:10;9.60;99.90
4701;DHT22;8724;51.272;6.554;2024-02-26T11:09:41;9.60;99.90
4701;DHT22;8724;51.272;6.554;2024-02-26T11:12:12;9.60;99.90
4701;DHT22;8724;51.272;6.554;2024-02-26T11:14:43;9.60;99.90
4701;DHT22;8724;51.272;6.554;2024-02-26T11:17:13;9.60;99.90
4701;DHT22;8724;51.272;6.554;2024-02-26T11:19:44;9.60;99.90
4701;DHT22;8724;51.272;6.554;2024-02-26T11:22:14;9.60;99.90
4701;DHT22;8724;51.272;6.554;2024-02-26T11:24:52;9.50;99.90
4701;DHT22;8724;51.272;6.554;2024-02-26T11:27:25;9.50;99.90
4701;DHT22;8724;51.272;6.554;2024-02-26T11:29:58;9.50;99.90
4701;DHT22;8724;51.272;6.554;2024-02-26T11:32:28;9.50;99.90
4701;DHT22;8724;51.272;6.554;2024-02-26T11:34:58;9.50;99.90
4701;DHT22;8724;51.272;6.554;2024-02-26T11:37:27;9.50;99.90
4701;DHT22;8724;51.272;6.554;2024-02-26T11:39:59;9.50;99.90
4701;DHT22;8724;51.272;6.554;2024-02-26T11:42:28;9.50;99.90
4701;DHT22;8724;51.272;6.554;2024-02-26T11:44:57;9.50;99.90
4701;DHT22;8724;51.272;6.554;2024-02-26T11:47:28;9.40;99.90
4701;DHT22;8724;51.272;6.554;2024-02-26T11:49:56;9.50;99.90
4701;DHT22;8724;51.272;6.554;2024-02-26T11:52:24;9.50;99.90
4701;DHT22;8724;51.272;6.554;2024-02-26T11:54:54;9.50;99.90
4701;DHT22;8724;51.272;6.554;2024-02-26T11:57:26;9.50;99.90
4701;DHT22;8724;51.272;6.554;2024-02-26T11:59:56;9.50;99.90
4701;DHT22;8724;51.272;6.554;2024-02-26T12:02:42;9.50;99.90
4701;DHT22;8724;51.272;6.554;2024-02-26T12:05:13;9.50;99.90
4701;DHT22;8724;51.272;6.554;2024-02-26T12:07:47;9.50;99.90
4701;DHT22;8724;51.272;6.554;2024-02-26T12:10:25;9.50;99.90
4701;DHT22;8724;51.272;6.554;2024-02-26T12:12:58;9.50;99.90
4701;DHT22;8724;51.272;6.554;2024-02-26T12:15:32;9.50;99.90
4701;DHT22;8724;51.272;6.554;2024-02-26T12:18:03;9.50;99.90
4701;DHT22;8724;51.272;6.554;2024-02-26T12:20:32;9.50;99.90
4701;DHT22;8724;51.272;6.554;2024-02-26T12:23:02;9.50;99.90
4701;DHT22;8724;51.272;6.554;2024-02-26T12:25:31;9.50;99.90
4701;DHT22;8724;51.272;6.554;2024-02-26T12:28:01;9.60;99.90
4701;DHT22;8724;51.272;6.554;2024-02-26T12:30:31;9.50;99.90
4701;DHT22;8724;51.272;6.554;2024-02-26T12:33:00;9.60;99.90
4701;DHT22;8724;51.272;6.554;2024-02-26T12:35:30;9.50;99.90
4701;DHT22;8724;51.272;6.554;2024-02-26T12:37:59;9.50;99.90
4701;DHT22;8724;51.272;6.554;2024-02-26T12:40:27;9.60;99.90
4701;DHT22;8724;51.272;6.554;2024-02-26T12:42:56;9.60;99.90
4701;DHT22;8724;51.272;6.554;2024-02-26T12:45:26;9.60;99.90
4701;DHT22;8724;51.272;6.554;2024-02-26T12:47:55;9.60;99.90
4701;DHT22;8724;51.272;6.554;2024-02-26T12:50:24;9.60;99.90
4701;DHT22;8724;51.272;6.554;2024-02-26T12:52:53;9.60;99.90
4701;DHT22;8724;51.272;6.554;2024-02-26T12:55:22;9.60;99.90
4701;DHT22;8724;51.272;6.554;2024-02-26T12:57:51;9.50;99.90
4701;DHT22;8724;51.272;6.554;2024-02-26T13:00:23;9.60;99.90
4701;DHT22;8724;51.272;6.554;2024-02-26T13:02:54;9.60;99.90
4701;DHT22;8724;51.272;6.554;2024-02-26T13:05:23;9.60;99.90
4701;DHT22;8724;51.272;6.554;2024-02-26T13:07:52;9.50;99.90
4701;DHT22;8724;51.272;6.554;2024-02-26T13:10:20;9.60;99.90
4701;DHT22;8724;51.272;6.554;2024-02-26T13:12:49;9.60;99.90
4701;DHT22;8724;51.272;6.554;2024-02-26T13:15:19;9.60;99.90
4701;DHT22;8724;51.272;6.554;2024-02-26T13:17:48;9.60;99.90
4701;DHT22;8724;51.272;6.554;2024-02-26T13:20:27;9.60;99.90
4701;DHT22;8724;51.272;6.554;2024-02-26T13:23:03;9.70;99.90
4701;DHT22;8724;51.272;6.554;2024-02-26T13:25:32;9.70;99.90
4701;DHT22;8724;51.272;6.554;2024-02-26T13:28:08;9.70;99.90
4701;DHT22;8724;51.272;6.554;2024-02-26T13:30:37;9.70;99.90
4701;DHT22;8724;51.272;6.554;2024-02-26T13:33:09;9.80;99.90
4701;DHT22;8724;51.272;6.554;2024-02-26T13:35:39;9.80;99.90
4701;DHT22;8724;51.272;6.554;2024-02-26T13:38:08;9.80;99.90
4701;DHT22;8724;51.272;6.554;2024-02-26T13:40:36;9.80;99.90
4701;DHT22;8724;51.272;6.554;2024-02-26T13:43:05;9.80;99.90
4701;DHT22;8724;51.272;6.554;2024-02-26T13:45:35;9.80;99.90
4701;DHT22;8724;51.272;6.554;2024-02-26T13:48:05;9.80;99.90
4701;DHT22;8724;51.272;6.554;2024-02-26T13:50:34;9.80;99.90
4701;DHT22;8724;51.272;6.554;2024-02-26T13:53:04;9.80;99.90
4701;DHT22;8724;51.272;6.554;2024-02-26T13:55:32;9.90;99.90
4701;DHT22;8724;51.272;6.554;2024-02-26T13:58:01;9.90;99.90
4701;DHT22;8724;51.272;6.554;2024-02-26T14:00:30;9.90;99.90
4701;DHT22;8724;51.272;6.554;2024-02-26T14:03:01;9.90;99.90
4701;DHT22;8724;51.272;6.554;2024-02-26T14:05:31;9.90;99.90
4701;DHT22;8724;51.272;6.554;2024-02-26T14:07:59;9.90;99.90
4701;DHT22;8724;51.272;6.554;2024-02-26T14:10:29;10.00;99.90
4701;DHT22;8724;51.272;6.554;2024-02-26T14:12:59;10.00;99.90
4701;DHT22;8724;51.272;6.554;2024-02-26T14:15:28;10.00;99.90
4701;DHT22;8724;51.272;6.554;2024-02-26T14:17:57;10.00;99.90
4701;DHT22;8724;51.272;6.554;2024-02-26T14:20:25;10.00;99.90
4701;DHT22;8724;51.272;6.554;2024-02-26T14:22:54;10.00;99.90
4701;DHT22;8724;51.272;6.554;2024-02-26T14:25:22;10.00;99.90
4701;DHT22;8724;51.272;6.554;2024-02-26T14:27:57;10.00;99.90
4701;DHT22;8724;51.272;6.554;2024-02-26T14:30:26;10.00;99.90
4701;DHT22;8724;51.272;6.554;2024-02-26T14:32:55;10.00;99.90
4701;DHT22;8724;51.272;6.554;2024-02-26T14:35:23;10.00;99.90
4701;DHT22;8724;51.272;6.554;2024-02-26T14:37:52;10.00;99.90
4701;DHT22;8724;51.272;6.554;2024-02-26T14:40:21;10.00;99.90
4701;DHT22;8724;51.272;6.554;2024-02-26T14:42:49;10.00;99.90
4701;DHT22;8724;51.272;6.554;2024-02-26T14:45:19;10.00;99.90
4701;DHT22;8724;51.272;6.554;2024-02-26T14:47:47;10.00;99.90
4701;DHT22;8724;51.272;6.554;2024-02-26T14:50:16;9.80;99.90
4701;DHT22;8724;51.272;6.554;2024-02-26T14:52:44;10.00;99.90
4701;DHT22;8724;51.272;6.554;2024-02-26T14:55:13;10.00;99.90
4701;DHT22;8724;51.272;6.554;2024-02-26T14:57:41;10.00;99.90
4701;DHT22;8724;51.272;6.554;2024-02-26T15:00:10;10.00;99.90
4701;DHT22;8724;51.272;6.554;2024-02-26T15:02:40;10.00;99.90
4701;DHT22;8724;51.272;6.554;2024-02-26T15:05:08;10.00;99.90
4701;DHT22;8724;51.272;6.554;2024-02-26T15:07:38;10.00;99.90
4701;DHT22;8724;51.272;6.554;2024-02-26T15:10:08;10.00;99.90
4701;DHT22;8724;51.272;6.554;2024-02-26T15:12:36;10.00;99.90
4701;DHT22;8724;51.272;6.554;2024-02-26T15:15:06;10.00;99.90
4701;DHT22;8724;51.272;6.554;2024-02-26T15:17:34;10.00;99.90
4701;DHT22;8724;51.272;6.554;2024-02-26T15:20:06;10.00;99.90
4701;DHT22;8724;51.272;6.554;2024-02-26T15:22:35;10.00;99.90
4701;DHT22;8724;51.272;6.554;2024-02-26T15:25:05;10.00;99.90
4701;DHT22;8724;51.272;6.554;2024-02-26T15:27:33;10.00;99.90
4701;DHT22;8724;51.272;6.554;2024-02-26T15:30:02;10.00;99.90
4701;DHT22;8724;51.272;6.554;2024-02-26T15:32:31;10.00;99.90
4701;DHT22;8724;51.272;6.554;2024-02-26T15:34:59;10.00;99.90
4701;DHT22;8724;51.272;6.554;2024-02-26T15:37:29;10.00;99.90
4701;DHT22;8724;51.272;6.554;2024-02-26T15:39:57;10.00;99.90
4701;DHT22;8724;51.272;6.554;2024-02-26T15:42:26;10.00;99.90
4701;DHT22;8724;51.272;6.554;2024-02-26T15:44:54;10.00;99.90
4701;DHT22;8724;51.272;6.554;2024-02-26T15:47:23;10.00;99.90
4701;DHT22;8724;51.272;6.554;2024-02-26T15:49:51;10.00;99.90
4701;DHT22;8724;51.272;6.554;2024-02-26T15:52:19;10.00;99.90
4701;DHT22;8724;51.272;6.554;2024-02-26T15:54:49;10.00;99.90
4701;DHT22;8724;51.272;6.554;2024-02-26T15:57:18;10.00;99.90
4701;DHT22;8724;51.272;6.554;2024-02-26T15:59:47;10.00;99.90
4701;DHT22;8724;51.272;6.554;2024-02-26T16:02:17;10.00;99.90
4701;DHT22;8724;51.272;6.554;2024-02-26T16:04:45;10.00;99.90
4701;DHT22;8724;51.272;6.554;2024-02-26T16:07:19;10.00;99.90
4701;DHT22;8724;51.272;6.554;2024-02-26T16:09:52;10.00;99.90
4701;DHT22;8724;51.272;6.554;2024-02-26T16:12:25;10.00;99.90
4701;DHT22;8724;51.272;6.554;2024-02-26T16:14:57;9.90;99.90
4701;DHT22;8724;51.272;6.554;2024-02-26T16:17:30;10.00;99.90
4701;DHT22;8724;51.272;6.554;2024-02-26T16:20:01;9.90;99.90
4701;DHT22;8724;51.272;6.554;2024-02-26T16:22:31;10.00;99.90
4701;DHT22;8724;51.272;6.554;2024-02-26T16:25:01;9.90;99.90
4701;DHT22;8724;51.272;6.554;2024-02-26T16:27:30;9.90;99.90